Nearby METAR Reports

 

KFRG - , , USA
Distance from station: SSW 12mi, 20km
Updated: 11/13/2019 12:53am
Clear
Clear
 Wind from NW
Wind: NW 16 mph , 26 km/h, Gust: 23 mph , 37 km/h
Temperature: 25°F , -4°C
Wind Chill: 12°F , -11°C
Dew Point: 7°F , -14°C
Humidity: 46%
Barometer: 30.15 inHg , 1021 hPa
Clouds: Clear
Visibility: 10 miles , 16 km
2019/11/13 05:53 KFRG 130553Z AUTO 32014G20KT 10SM CLR M04/M14 A3015 RMK AO2 SLP211 T10391139 10000 21039 51011
KISP - , , USA
Distance from station: ESE 14mi, 23km
Updated: 11/12/2019 11:56pm
Few Clouds
Few Clouds
 Wind from NW
Wind: NW 20 mph , 31 km/h, Gust: 30 mph , 48 km/h
Temperature: 27°F , -3°C
Wind Chill: 13°F , -11°C
Dew Point: 7°F , -14°C
Humidity: 43%
Barometer: 30.12 inHg , 1020 hPa
Clouds: Few Clouds
Visibility: 10 miles , 16 km
Cloud details: Few Clouds 25000 ft
2019/11/13 04:56 KISP 130456Z 32017G26KT 10SM FEW250 M03/M14 A3012 RMK AO2 PK WND 32026/0448 SLP200 LAST T10331144 401441033
 
KBDR - , , USA
Distance from station: NNE 21mi, 34km
Updated: 11/13/2019 12:52am
Clear
Clear
 Wind from WNW
Wind: WNW 13 mph , 20 km/h
Temperature: 25°F , -4°C
Wind Chill: 13°F , -11°C
Dew Point: 7°F , -14°C
Humidity: 46%
Barometer: 30.13 inHg , 1020.3 hPa
Clouds: Clear
Visibility: 10 miles , 16 km
2019/11/13 05:52 KBDR 130552Z AUTO 30011KT 10SM CLR M04/M14 A3013 RMK AO2 SLP203 T10391144 11006 21039 53008
KHPN - , , USA
Distance from station: WNW 22mi, 35km
Updated: 11/12/2019 11:56pm
Clear
Clear
 Wind from NW
Wind: NW 15 mph , 24 km/h
Temperature: 23°F , -5°C
Wind Chill: 10°F , -12°C
Dew Point: 9°F , -13°C
Humidity: 54%
Barometer: 30.12 inHg , 1020 hPa
Clouds: Clear
Visibility: 10 miles , 16 km
2019/11/13 04:56 KHPN 130456Z 31013KT 10SM CLR M05/M13 A3012 RMK AO2 PK WND 32028/0430 SLP207 T10501133 401221050
 
KHWV - , , USA
Distance from station: ESE 26mi, 41km
Updated: 11/12/2019 11:56pm
Clear
Clear
 Wind from NW
Wind: NW 17 mph , 28 km/h, Gust: 30 mph , 48 km/h
Temperature: 27°F , -3°C
Wind Chill: 14°F , -10°C
Dew Point: 7°F , -14°C
Humidity: 43%
Barometer: 30.12 inHg , 1020 hPa
Clouds: Clear
Visibility: 10 miles , 16 km
2019/11/13 04:56 KHWV 130456Z AUTO 32015G26KT 10SM CLR M03/M14 A3012 RMK AO2 PK WND 31027/0359 SLP201 T10331144 401501033
KJFK - , , USA
Distance from station: SW 29mi, 46km
Updated: 11/13/2019 12:51am
Few Clouds
Few Clouds
 Wind from NW
Wind: NW 24 mph , 39 km/h, Gust: 32 mph , 52 km/h
Temperature: 25°F , -4°C
Wind Chill: 10°F , -12°C
Dew Point: 7°F , -14°C
Humidity: 46%
Barometer: 30.18 inHg , 1022 hPa
Clouds: Few Clouds
Visibility: 10 miles , 16 km
Cloud details: Few Clouds 6000 ft
Few Clouds 25000 ft
2019/11/13 05:51 KJFK 130551Z 32021G28KT 10SM FEW060 FEW250 M04/M14 A3018 RMK AO2 PK WND 33029/0506 SLP220 T10391144 10000 21039 51008 $
 
KLGA - , , USA
Distance from station: WSW 29mi, 47km
Updated: 11/13/2019 12:51am
Few Clouds
Few Clouds
 Wind from NW
Wind: NW 24 mph , 39 km/h, Gust: 33 mph , 54 km/h
Temperature: 27°F , -3°C
Wind Chill: 12°F , -11°C
Dew Point: 10°F , -12°C
Humidity: 50%
Barometer: 30.17 inHg , 1021.7 hPa
Clouds: Few Clouds
Visibility: 10 miles , 16 km
Cloud details: Few Clouds 25000 ft
2019/11/13 05:51 KLGA 130551Z 31021G29KT 10SM FEW250 M03/M12 A3017 RMK AO2 PK WND 31031/0525 SLP216 T10281117 10006 21028 50007